Jamestown, CA

5:54 AM PDT on May 23, 2015 (GMT -0700)
Martin Terrace | | Change Station
CLOSE
Current Station
Personal Weather Station
Location: Sonora, CA
Elevation: 2060 ft
Nearby Weather Stations

Elev 2060 ft 38.00 °N, 120.41 °W | Updated 28 seconds ago

Overcast
Overcast
52.3 °F
Feels Like 52.3 °F
N
0.0
Wind Variable Wind from SE
Gusts 2.0 mph

Today
High -- | Low -- °F
--% Chance of Precip.
Yesterday
High -- | Low -- °F
Precip. -- in
5:45 AM 8:11 PM
Waxing Crescent, 29% visible
Pressure 30.03 in
Visibility 10.0 miles
Clouds Mostly Cloudy 4900 ft
Mostly Cloudy 6000 ft
Overcast 9500 ft
Dew Point 49 °F
Humidity 88%
Rainfall 0.00 in
Snow Depth Not available.
UV 0 out of 12
Pollen 6.50 out of 12
Air Quality Not available.
Flu Activity Sporadic
METAR KO22 231235Z AUTO 00000KT 10SM BKN049 BKN060 OVC095 12/10 A3003 RMK AO1

More Conditions Fewer Conditions

Pressure 30.03 in
Visibility 10.0 miles
Clouds Mostly Cloudy 4900 ft
Mostly Cloudy 6000 ft
Overcast 9500 ft
Dew Point 49 °F
Humidity 88%
Rainfall 0.00 in
Snow Depth Not available.
UV 0 out of 12
Pollen 6.50 out of 12
Air Quality Not available.
Flu Activity Sporadic
METAR KO22 231235Z AUTO 00000KT 10SM BKN049 BKN060 OVC095 12/10 A3003 RMK AO1

More Conditions Fewer Conditions

10-Day Weather Forecast

Almanac

Astronomy

May. 23, 2015 Rise Set
Actual Time
Civil Twilight
Nautical Twilight
Astronomical Twilight
Moon
Length of Visible Light
Length of Day
Tomorrow will be .
, % of the Moon is Illuminated

Today's Extremes

State Highs State Lows

Community

WunderPhotos

Upload Photos

1,823,442 photos uploaded!

WunderBlogs® & News

Nearby

Air Quality

  Air Quality AQ Index Pollutant
Not available.

Snow Depth

Station Depth Elevation

Earthquake Activity

City Distance Mag. Time & Date
Minimum magnitude displayed is 2.5.

Coastal Water Temperatures

Place Temperature

Stations

Nearby Weather Stations

Station Location Temp. Windchill Dew Point Humidity Wind Precip. Elev Updated Type